Airfield :
LOGIN :

Register | Disclaimer

   EN    FR    IT 

 










Legend :    VFR   Marginal VFR   IFR   Intensive IFR   Very Intensive IFR
Visi :
Ceiling :
>= 8 km
>= 3000ft
5 to 8 km
1000 to 3000 ft
1500m to 5 km
500 to 1000 ft
800 to 1500m
200 to 500 ft
< 800m
< 200 ft
Symbols :   Thunderstorms  Fog  Heavy snow  Heavy precipitations  Wind > 20 kt
SIGMETs :     Misc.  Thunderstorms  Icing  Turbulence  Mountain Waves  Volcanic Ashes







- Airport Elevation : 433 ft
- Download approach charts


LFOC - Chateaudun

CURRENT METAR :
  • 201330Z AUTO 29003KT 9999 BKN036 OVC043 16/12 Q1012 TEMPO 33015G25KT 4000 -SHRA BKN030CB

EXPIRED METARs :
  • 201300Z AUTO 29007KT 9999 BKN023 BKN034 OVC043 15/11 Q1012 TEMPO 33015G25KT 4000 -SHRA BKN030CB
  • 201230Z AUTO 25005KT 220V310 9999 FEW024 BKN041 OVC049 16/12 Q1012 TEMPO 33015G25KT 4000 -SHRA BKN030CB
  • 201200Z AUTO 28004KT 230V300 9999 SCT023 BKN032 OVC038 15/11 Q1012 TEMPO 4000 -SHRA BKN035TCU
  • 201130Z AUTO VRB03KT 9999 BKN025 BKN034 OVC043 16/11 Q1012 TEMPO 4000 -SHRA BKN035TCU
  • 201100Z AUTO 36004KT 320V040 9999 FEW020 BKN032 OVC042 15/10 Q1012 TEMPO 4000 -SHRA BKN035TCU

TAF TAF LFOC
Valid from the 20 at 09:00 until the 21 at 09:00 UTC


200800Z 2009/2109 33010KT 9999 BKN025 BKN080
TEMPO 2011/2020 4000 -SHRA BKN035TCU
PROB40
TEMPO 2014/2020 33015G25KT -TSRA BKN030CB
BECMG 2100/2102 3000 BR
BECMG 2105/2107 CAVOK
No reported NOTAMs for that airfield.



MET'MAP, your aeronautical weather chart ! - Copyright ORBIFLY December 2007 - Disclaimer

ORBIFLY MET'MAP TEAM :

Programming & Development : Alexandra Zaïnal
Concept & Development : Baudouin d'Aumeries
Co-Development & Prog : Marc-Olivier Méhu
Technical & hardware support : Manuel Goepfert

Contact : metmap@orbifly.com




SOURCES & CREDITS :

   NOAA